Time;durP1;ratioP1;P1;durP2;ratioP2;P2;SDS_P1;SDS_P2;PMS_P1;PMS_P2;Temp;Humidity;BMP_temperature;BMP_pressure;BME280_temperature;BME280_humidity;BME280_pressure;Samples;Min_cycle;Max_cycle;Signal;HPM_P1;HPM_P2
2022/10/20 03:36:07;;;;;;;;;;;;;;;6.39;100.00;99556.97;5370050;23;19973;-88
2022/10/20 03:38:32;;;;;;;;;;;;;;;6.40;100.00;99550.78;4976236;28;19961;-88
2022/10/20 03:40:57;;;;;;;;;;;;;;;6.42;100.00;99551.63;4968934;28;19964;-87
2022/10/20 03:43:23;;;;;;;;;;;;;;;6.45;100.00;99554.16;4968481;28;19918;-88
2022/10/20 03:45:48;;;;;;;;;;;;;;;6.42;100.00;99554.25;4985810;28;20368;-87
2022/10/20 03:48:14;;;;;;;;;;;;;;;6.47;100.00;99560.25;4985822;28;19917;-87
2022/10/20 03:50:42;;;;;;;;;;;;;;;6.49;100.00;99579.47;4984515;28;20016;-88
2022/10/20 03:53:11;;;;;;;;;;;;;;;6.46;100.00;99579.56;4984517;28;20393;-88
2022/10/20 03:55:36;;;;;;;;;;;;;;;6.46;100.00;99572.53;4985514;28;20373;-88
2022/10/20 03:58:01;;;;;;;;;;;;;;;6.49;100.00;99563.69;4985441;28;19925;-89
2022/10/20 04:00:27;;;;;;;;;;;;;;;6.48;100.00;99547.03;4975634;28;20415;-90
2022/10/20 04:02:52;;;;;;;;;;;;;;;6.48;100.00;99551.44;4985169;28;20117;-88
2022/10/20 04:05:19;;;;;;;;;;;;;;;6.48;100.00;99561.97;4984453;28;19922;-89
2022/10/20 04:07:44;;;;;;;;;;;;;;;6.45;100.00;99555.00;4967823;28;19918;-89
2022/10/20 04:10:10;;;;;;;;;;;;;;;6.45;100.00;99541.84;4984870;28;19928;-91
2022/10/20 04:12:35;;;;;;;;;;;;;;;6.46;100.00;99546.22;4985249;28;19918;-89
2022/10/20 04:15:01;;;;;;;;;;;;;;;6.44;100.00;99552.44;4984536;28;19918;-89
2022/10/20 04:17:26;;;;;;;;;;;;;;;6.46;100.00;99542.72;4985376;28;19921;-88
2022/10/20 04:19:51;;;;;;;;;;;;;;;6.49;100.00;99543.50;4983858;28;19918;-89
2022/10/20 04:22:17;;;;;;;;;;;;;;;6.46;100.00;99553.22;4984911;28;20365;-89
2022/10/20 04:24:42;;;;;;;;;;;;;;;6.47;100.00;99547.06;4984261;28;19928;-88
2022/10/20 04:27:07;;;;;;;;;;;;;;;6.44;100.00;99552.44;4985382;28;19918;-89
2022/10/20 04:29:33;;;;;;;;;;;;;;;6.45;100.00;99555.00;4967346;28;19925;-88
2022/10/20 04:31:58;;;;;;;;;;;;;;;6.46;100.00;99555.88;4983453;28;19973;-89
2022/10/20 04:34:23;;;;;;;;;;;;;;;6.47;100.00;99576.03;4984512;28;19972;-88
2022/10/20 04:36:49;;;;;;;;;;;;;;;6.44;100.00;99570.84;4983619;28;20300;-88
2022/10/20 04:39:14;;;;;;;;;;;;;;;6.43;100.00;99558.59;4984818;28;20308;-88
2022/10/20 04:41:39;;;;;;;;;;;;;;;6.44;100.00;99545.38;4966693;28;20017;-90
2022/10/20 04:44:04;;;;;;;;;;;;;;;6.46;100.00;99542.72;4967083;28;20380;-89
2022/10/20 04:46:30;;;;;;;;;;;;;;;6.45;100.00;99543.63;4967504;28;19917;-89
2022/10/20 04:48:55;;;;;;;;;;;;;;;6.46;100.00;99555.88;4984328;28;19925;-89
2022/10/20 04:51:20;;;;;;;;;;;;;;;6.38;100.00;99584.19;4966044;28;19917;-89
2022/10/20 07:39:11;;;;;;;;;;;;;;;6.63;100.00;99545.69;5860246;23;19968;-89
2022/10/20 07:41:38;;;;;;;;;;;;;;;6.56;100.00;99536.28;4994143;28;19926;-90
2022/10/20 07:44:03;;;;;;;;;;;;;;;6.54;100.00;99546.84;4993555;28;19929;-91
2022/10/20 07:46:45;;;;;;;;;;;;;;;6.64;100.00;99549.22;4994027;28;19918;-90
2022/10/20 07:49:10;;;;;;;;;;;;;;;6.52;100.00;99556.53;4994040;28;20295;-88
2022/10/20 07:51:35;;;;;;;;;;;;;;;6.58;100.00;99558.13;4995195;28;20012;-89
2022/10/20 07:54:08;;;;;;;;;;;;;;;6.61;100.00;99554.56;4994071;28;19953;-89
2022/10/20 07:56:35;;;;;;;;;;;;;;;6.62;100.00;99566.81;4993105;28;19918;-90
2022/10/20 07:59:11;;;;;;;;;;;;;;;6.62;100.00;99575.59;4994227;28;20012;-88
2022/10/20 08:01:46;;;;;;;;;;;;;;;6.60;100.00;99576.53;4994666;28;20349;-90
2022/10/20 08:04:14;;;;;;;;;;;;;;;6.65;100.00;99572.84;4993809;28;19918;-92
2022/10/20 08:06:39;;;;;;;;;;;;;;;6.63;100.00;99574.66;4993692;28;20272;-90
2022/10/20 08:09:04;;;;;;;;;;;;;;;7.28;100.00;99570.00;4991724;28;19917;-89
2022/10/20 08:11:29;;;;;;;;;;;;;;;7.17;100.00;99562.44;4995390;28;19926;-90
2022/10/20 08:13:57;;;;;;;;;;;;;;;6.85;100.00;99569.59;4993666;28;19922;-91
2022/10/20 08:16:23;;;;;;;;;;;;;;;6.89;100.00;99573.88;4993867;28;19944;-90
2022/10/20 08:18:48;;;;;;;;;;;;;;;6.80;100.00;99568.03;4993470;28;19926;-85
2022/10/20 08:21:17;;;;;;;;;;;;;;;6.78;100.00;99559.28;4994812;28;20365;-89
2022/10/20 08:23:43;;;;;;;;;;;;;;;6.77;100.00;99568.97;4993359;28;19925;-89
2022/10/20 08:26:14;;;;;;;;;;;;;;;6.83;100.00;99571.44;4993260;28;19922;-89
2022/10/20 08:32:24;;;;;;;;;;;;;;;6.84;100.00;99564.38;4989866;28;19918;-89
2022/10/20 08:34:52;;;;;;;;;;;;;;;6.85;100.00;99561.69;4994353;28;19929;-90
2022/10/20 08:37:17;;;;;;;;;;;;;;;6.87;100.00;99572.19;4993760;28;19925;-90
2022/10/20 08:39:45;;;;;;;;;;;;;;;6.82;100.00;99566.22;4999454;28;19921;-88
2022/10/20 08:42:11;;;;;;;;;;;;;;;6.83;100.00;99557.38;5033594;28;19932;-90
2022/10/20 08:44:42;;;;;;;;;;;;;;;6.82;100.00;99561.78;5027404;23;19925;-89
2022/10/20 08:47:45;;;;;;;;;;;;;;;6.81;100.00;99554.81;4986168;28;19968;-89
2022/10/20 08:50:14;;;;;;;;;;;;;;;6.83;100.00;99545.09;4986093;28;19918;-89
2022/10/20 08:52:41;;;;;;;;;;;;;;;6.86;100.00;99557.28;5003034;28;19922;-89
2022/10/20 08:55:06;;;;;;;;;;;;;;;6.73;100.00;99557.69;5002494;28;19918;-89
2022/10/20 08:57:33;;;;;;;;;;;;;;;6.77;100.00;99557.59;5003962;28;19923;-90
2022/10/20 09:00:29;;;;;;;;;;;;;;;6.77;100.00;99561.06;4993335;28;19948;-89
2022/10/20 09:03:26;;;;;;;;;;;;;;;;;;;;;
2022/10/20 09:05:55;;;;;;;;;;;;;;;6.80;100.00;99557.50;5002894;28;19925;-90
2022/10/20 09:08:36;;;;;;;;;;;;;;;6.82;100.00;99530.19;5002116;28;20408;-90
2022/10/20 09:11:22;;;;;;;;;;;;;;;6.81;100.00;99532.88;4985835;28;19993;-91
2022/10/20 09:14:26;;;;;;;;;;;;;;;;;;;;;
2022/10/20 09:16:52;;;;;;;;;;;;;;;7.84;100.00;99510.13;4968259;28;20288;-91
2022/10/20 09:19:21;;;;;;;;;;;;;;;7.37;100.00;99526.66;5003321;28;20011;-91
2022/10/20 09:21:50;;;;;;;;;;;;;;;7.20;100.00;99529.88;5002823;28;20365;-92
2022/10/20 09:24:16;;;;;;;;;;;;;;;7.15;100.00;99540.56;5003616;28;19918;-91
2022/10/20 09:26:45;;;;;;;;;;;;;;;7.07;100.00;99548.72;5002333;28;19921;-92
2022/10/20 09:29:11;;;;;;;;;;;;;;;7.03;100.00;99549.72;4992944;28;19965;-91
2022/10/20 09:31:37;;;;;;;;;;;;;;;7.06;100.00;99556.66;5003381;28;19961;-91
2022/10/20 09:34:26;;;;;;;;;;;;;;;7.04;100.00;99564.63;4985819;28;19944;-91
2022/10/20 09:36:54;;;;;;;;;;;;;;;7.11;100.00;99552.09;4993947;28;20007;-92
2022/10/20 09:39:34;;;;;;;;;;;;;;;7.05;100.00;99542.63;5002025;28;19918;-92
2022/10/20 09:42:05;;;;;;;;;;;;;;;7.03;100.00;99539.16;4993570;28;19929;-91
2022/10/20 09:44:38;;;;;;;;;;;;;;;7.04;100.00;99529.50;5002404;28;19921;-92
2022/10/20 09:47:03;;;;;;;;;;;;;;;7.05;100.00;99521.56;5000889;28;19921;-93
2022/10/20 09:49:30;;;;;;;;;;;;;;;7.07;100.00;99529.41;5003176;28;19945;-93
2022/10/20 09:51:56;;;;;;;;;;;;;;;7.03;100.00;99533.91;4985000;28;20407;-93
2022/10/20 09:54:23;;;;;;;;;;;;;;;7.02;100.00;99532.19;4984365;28;19965;-93
2022/10/20 09:56:48;;;;;;;;;;;;;;;7.09;100.00;99533.72;5002869;28;19964;-91
2022/10/20 09:59:20;;;;;;;;;;;;;;;7.08;100.00;99542.53;5002740;28;19965;-91
2022/10/20 10:01:57;;;;;;;;;;;;;;;7.06;100.00;99536.44;5002088;28;19921;-91
2022/10/20 10:04:35;;;;;;;;;;;;;;;7.07;100.00;99534.69;5002586;28;19918;-91
2022/10/20 10:07:01;;;;;;;;;;;;;;;7.03;100.00;99533.91;5001376;28;19976;-93
2022/10/20 10:09:29;;;;;;;;;;;;;;;7.05;100.00;99534.75;5001828;28;19925;-91
2022/10/20 10:12:10;;;;;;;;;;;;;;;7.04;100.00;99524.25;5002487;28;19924;-92
2022/10/20 10:14:35;;;;;;;;;;;;;;;7.03;100.00;99526.00;5002325;28;19918;-92
2022/10/20 10:17:01;;;;;;;;;;;;;;;7.02;100.00;99532.19;4985393;28;19925;-92
2022/10/20 10:19:36;;;;;;;;;;;;;;;6.99;100.00;99540.19;5002630;28;19922;-94
2022/10/20 10:22:02;;;;;;;;;;;;;;;7.01;100.00;99538.38;5003034;28;19926;-92
2022/10/20 10:24:46;;;;;;;;;;;;;;;7.03;100.00;99549.72;5001497;28;19984;-93
2022/10/20 10:27:37;;;;;;;;;;;;;;;7.02;100.00;99553.28;5003855;28;19928;-92
2022/10/20 10:30:27;;;;;;;;;;;;;;;7.02;100.00;99549.75;4951593;28;19925;-94
2022/10/20 10:32:53;;;;;;;;;;;;;;;7.02;100.00;99550.63;5001785;28;20473;-89
2022/10/20 10:35:23;;;;;;;;;;;;;;;7.03;100.00;99539.16;4985409;28;19926;-91
2022/10/20 10:37:48;;;;;;;;;;;;;;;7.02;100.00;99552.38;5002197;28;19933;-92
2022/10/20 10:40:18;;;;;;;;;;;;;;;7.06;100.00;99548.75;5001043;28;19917;-90
2022/10/20 10:42:55;;;;;;;;;;;;;;;7.13;100.00;99546.78;5002208;28;19986;-93
2022/10/20 10:45:38;;;;;;;;;;;;;;;7.05;100.00;99540.00;5002082;28;19926;-90
2022/10/20 10:48:04;;;;;;;;;;;;;;;7.12;100.00;99539.81;5002272;28;19925;-92
2022/10/20 10:51:02;;;;;;;;;;;;;;;7.07;100.00;99527.63;5002313;28;20266;-91
2022/10/20 10:53:36;;;;;;;;;;;;;;;7.04;100.00;99517.19;4942808;28;20335;-92
2022/10/20 10:56:22;;;;;;;;;;;;;;;7.05;100.00;99537.38;4984741;28;20308;-89
2022/10/20 10:58:53;;;;;;;;;;;;;;;7.06;100.00;99531.16;5002496;28;19944;-90
2022/10/20 11:01:36;;;;;;;;;;;;;;;7.14;100.00;99512.47;4984087;28;19927;-91
2022/10/20 11:04:27;;;;;;;;;;;;;;;7.06;100.00;99491.66;4984013;28;20328;-92
2022/10/20 11:07:11;;;;;;;;;;;;;;;7.13;100.00;99480.91;4974169;28;19980;-92
2022/10/20 11:09:43;;;;;;;;;;;;;;;7.04;100.00;99479.47;4983402;28;19918;-90
2022/10/20 11:12:11;;;;;;;;;;;;;;;7.13;100.00;99465.09;4985802;28;19987;-93
2022/10/20 11:14:44;;;;;;;;;;;;;;;7.06;100.00;99465.31;4984934;28;20008;-93
2022/10/20 11:17:09;;;;;;;;;;;;;;;7.19;100.00;99470.16;4984514;28;19918;-93
2022/10/20 11:19:53;;;;;;;;;;;;;;;7.08;100.00;99474.03;4983963;28;20389;-93
2022/10/20 11:22:45;;;;;;;;;;;;;;;7.07;100.00;99476.72;5001369;28;19925;-89
2022/10/20 11:25:16;;;;;;;;;;;;;;;7.12;100.00;99481.84;4982195;28;20437;-90
2022/10/20 11:27:42;;;;;;;;;;;;;;;7.11;100.00;99477.47;4983687;28;20284;-90
2022/10/20 11:30:15;;;;;;;;;;;;;;;7.11;100.00;99474.84;5001700;28;19917;-92
2022/10/20 11:32:50;;;;;;;;;;;;;;;7.15;100.00;99460.63;4983388;28;19914;-90
2022/10/20 11:38:22;;;;;;;;;;;;;;;7.08;100.00;99474.03;4955833;28;20024;-91
2022/10/20 11:41:19;;;;;;;;;;;;;;;;;;;;;
2022/10/20 11:44:48;;;;;;;;;;;;;;;;;;;;;
2022/10/20 11:47:21;;;;;;;;;;;;;;;7.08;100.00;99474.03;4999614;28;19941;-94
2022/10/20 11:49:46;;;;;;;;;;;;;;;7.05;100.00;99486.44;4987082;28;19937;-91
2022/10/20 11:52:34;;;;;;;;;;;;;;;6.98;100.00;99464.69;5005621;28;19918;-92
2022/10/20 11:55:08;;;;;;;;;;;;;;;7.02;100.00;99474.25;4980267;28;19918;-93
2022/10/20 11:57:40;;;;;;;;;;;;;;;7.03;100.00;99460.13;4987158;28;19975;-92
2022/10/20 12:00:08;;;;;;;;;;;;;;;7.04;100.00;99446.06;4987250;28;19921;-91
2022/10/20 12:02:57;;;;;;;;;;;;;;;7.02;100.00;99431.22;5003092;28;19952;-91
2022/10/20 12:05:23;;;;;;;;;;;;;;;7.06;100.00;99444.22;4987251;28;20292;-90
2022/10/20 12:07:54;;;;;;;;;;;;;;;7.01;100.00;99456.69;4987718;28;19918;-93
2022/10/20 12:10:35;;;;;;;;;;;;;;;7.06;100.00;99459.19;5003902;28;20368;-93
2022/10/20 12:13:19;;;;;;;;;;;;;;;7.05;100.00;99449.56;4987773;28;20295;-92
2022/10/20 12:15:46;;;;;;;;;;;;;;;7.09;100.00;99449.41;4988574;28;20016;-92
2022/10/20 12:18:19;;;;;;;;;;;;;;;7.04;100.00;99451.34;4987201;28;19922;-92
2022/10/20 12:20:48;;;;;;;;;;;;;;;7.07;100.00;99453.00;5003812;28;19913;-91
2022/10/20 12:23:32;;;;;;;;;;;;;;;7.04;100.00;99461.88;5002100;28;19922;-92
2022/10/20 12:26:02;;;;;;;;;;;;;;;7.11;100.00;99440.59;4987242;28;19914;-93
2022/10/20 12:28:28;;;;;;;;;;;;;;;7.08;100.00;99439.78;4985931;28;19957;-91
2022/10/20 12:30:58;;;;;;;;;;;;;;;7.07;100.00;99445.97;4986753;28;20366;-92
2022/10/20 12:33:35;;;;;;;;;;;;;;;7.07;100.00;99432.78;5004641;28;19925;-91
2022/10/20 12:36:12;;;;;;;;;;;;;;;7.03;100.00;99431.16;5004592;28;19925;-92
2022/10/20 12:38:38;;;;;;;;;;;;;;;7.13;100.00;99428.22;5003439;28;19928;-92
2022/10/20 12:41:05;;;;;;;;;;;;;;;7.05;100.00;99426.72;5004549;28;19917;-92
2022/10/20 12:43:33;;;;;;;;;;;;;;;7.12;100.00;99418.63;5004765;28;20004;-88
2022/10/20 12:46:03;;;;;;;;;;;;;;;7.09;100.00;99417.78;4985888;28;19921;-92
2022/10/20 12:48:32;;;;;;;;;;;;;;;7.09;100.00;99417.78;4986231;28;20413;-91
2022/10/20 12:51:02;;;;;;;;;;;;;;;7.11;100.00;99420.38;5002195;28;20052;-90
2022/10/20 12:53:29;;;;;;;;;;;;;;;7.11;100.00;99424.78;4985420;28;19922;-94
2022/10/20 12:55:59;;;;;;;;;;;;;;;7.14;100.00;99425.53;5003905;28;20000;-90
2022/10/20 12:58:26;;;;;;;;;;;;;;;7.11;100.00;99424.78;4994786;28;20021;-89
2022/10/20 13:01:05;;;;;;;;;;;;;;;7.06;100.00;99423.16;5004246;28;19925;-94
2022/10/20 13:03:30;;;;;;;;;;;;;;;7.14;100.00;99419.41;4986541;28;19960;-90
2022/10/20 13:05:56;;;;;;;;;;;;;;;7.14;100.00;99422.03;5004828;28;19937;-93
2022/10/20 13:08:23;;;;;;;;;;;;;;;7.12;100.00;99416.81;4985822;28;19918;-88
2022/10/20 13:10:49;;;;;;;;;;;;;;;7.13;100.00;99402.72;4986322;28;20415;-89
2022/10/20 13:13:17;;;;;;;;;;;;;;;7.16;100.00;99384.16;5002565;28;19921;-89
2022/10/20 13:15:42;;;;;;;;;;;;;;;7.13;100.00;99375.53;5003674;28;20025;-88
2022/10/20 13:18:11;;;;;;;;;;;;;;;7.12;100.00;99369.41;4987594;28;20009;-92
2022/10/20 13:20:36;;;;;;;;;;;;;;;7.18;100.00;99379.72;5004565;28;19917;-90
2022/10/20 13:23:02;;;;;;;;;;;;;;;7.21;100.00;99376.97;5003800;28;19992;-88
2022/10/20 13:25:42;;;;;;;;;;;;;;;7.17;100.00;99359.56;5001412;28;20008;-92
2022/10/20 13:28:13;;;;;;;;;;;;;;;7.21;100.00;99344.47;5003144;28;20284;-90
2022/10/20 13:30:58;;;;;;;;;;;;;;;7.20;100.00;99355.97;4985058;28;19917;-92
2022/10/20 13:33:30;;;;;;;;;;;;;;;7.10;100.00;99363.34;4985841;28;20364;-93
2022/10/20 13:36:03;;;;;;;;;;;;;;;7.19;100.00;99360.34;5002542;28;19929;-93
2022/10/20 13:38:48;;;;;;;;;;;;;;;7.11;100.00;99357.13;5002520;28;19917;-93
2022/10/20 13:41:38;;;;;;;;;;;;;;;7.09;100.00;99365.09;4963000;28;20353;-94
2022/10/20 13:44:06;;;;;;;;;;;;;;;7.09;100.00;99358.97;4995242;28;19929;-92
2022/10/20 13:46:31;;;;;;;;;;;;;;;7.15;100.00;99360.50;4986046;28;19922;-93
2022/10/20 13:49:07;;;;;;;;;;;;;;;7.10;100.00;99360.69;5003338;28;19917;-93
2022/10/20 13:51:43;;;;;;;;;;;;;;;7.13;100.00;99365.84;4986507;28;19921;-93
2022/10/20 13:54:15;;;;;;;;;;;;;;;7.17;100.00;99371.88;5000923;28;19918;-91
2022/10/20 13:56:50;;;;;;;;;;;;;;;7.07;100.00;99372.19;4986567;28;19917;-93
2022/10/20 13:59:26;;;;;;;;;;;;;;;7.14;100.00;99379.88;4985320;28;19925;-92
2022/10/20 14:02:17;;;;;;;;;;;;;;;7.11;100.00;99375.56;4986103;28;19921;-93
2022/10/20 14:04:42;;;;;;;;;;;;;;;7.13;100.00;99372.88;4984601;28;20431;-91
2022/10/20 14:07:12;;;;;;;;;;;;;;;7.13;100.00;99375.53;4986444;28;19964;-93
2022/10/20 14:09:38;;;;;;;;;;;;;;;7.08;100.00;99368.66;5001564;28;19988;-93
2022/10/20 14:12:08;;;;;;;;;;;;;;;7.13;100.00;99370.25;5004060;28;20413;-93
2022/10/20 14:14:33;;;;;;;;;;;;;;;7.16;100.00;99365.72;5003637;28;20288;-94
2022/10/20 14:17:01;;;;;;;;;;;;;;;7.14;100.00;99361.44;4968719;28;20510;-94
2022/10/20 14:19:27;;;;;;;;;;;;;;;7.14;100.00;99358.81;4986448;28;19921;-92
2022/10/20 14:21:55;;;;;;;;;;;;;;;7.18;100.00;99361.28;5001533;28;20408;-93
2022/10/20 14:24:23;;;;;;;;;;;;;;;7.18;100.00;99358.66;4984207;28;19918;-91
2022/10/20 14:26:49;;;;;;;;;;;;;;;7.21;100.00;99362.94;4985945;28;19921;-91
2022/10/20 14:29:16;;;;;;;;;;;;;;;7.21;100.00;99360.28;4985310;28;20365;-92
2022/10/20 14:31:41;;;;;;;;;;;;;;;7.26;100.00;99355.75;4984983;28;19918;-92
2022/10/20 14:34:16;;;;;;;;;;;;;;;7.21;100.00;99357.66;4985786;28;19918;-92
2022/10/20 14:36:42;;;;;;;;;;;;;;;7.13;100.00;99357.06;4998499;28;19921;-90
2022/10/20 14:39:19;;;;;;;;;;;;;;;7.20;100.00;99362.06;5001670;28;19932;-91
2022/10/20 14:41:45;;;;;;;;;;;;;;;7.23;100.00;99355.84;5003311;28;20369;-90
2022/10/20 14:44:16;;;;;;;;;;;;;;;7.16;100.00;99349.91;5002460;28;19921;-92
2022/10/20 14:46:44;;;;;;;;;;;;;;;7.21;100.00;99355.03;4985129;28;19972;-90
2022/10/20 14:49:17;;;;;;;;;;;;;;;7.17;100.00;99342.88;4985082;28;19925;-92
2022/10/20 14:52:00;;;;;;;;;;;;;;;7.19;100.00;99338.41;4986182;28;19918;-90
2022/10/20 14:54:34;;;;;;;;;;;;;;;7.17;100.00;99341.09;4982519;28;20452;-90
2022/10/20 14:57:09;;;;;;;;;;;;;;;7.20;100.00;99337.50;4984865;28;20389;-96
2022/10/20 15:03:00;;;;;;;;;;;;;;;7.19;100.00;99346.31;4932984;29;20398;-89
2022/10/20 15:05:41;;;;;;;;;;;;;;;;;;;;;
2022/10/20 15:08:16;;;;;;;;;;;;;;;7.23;100.00;99342.66;4975355;28;19927;-93
2022/10/20 15:10:41;;;;;;;;;;;;;;;7.21;100.00;99340.09;5007642;28;19921;-91
2022/10/20 15:13:18;;;;;;;;;;;;;;;7.20;100.00;99337.50;5006566;28;19929;-94
2022/10/20 15:16:20;;;;;;;;;;;;;;;7.28;100.00;99322.28;5009307;28;19980;-96
2022/10/20 15:18:48;;;;;;;;;;;;;;;7.22;100.00;99317.22;5006546;28;19921;-93
2022/10/20 15:21:14;;;;;;;;;;;;;;;7.31;100.00;99324.81;4988932;28;20451;-93
2022/10/20 15:23:39;;;;;;;;;;;;;;;8.28;100.00;99325.44;5000216;28;19957;-91
2022/10/20 15:26:08;;;;;;;;;;;;;;;6.89;100.00;99341.22;5005299;28;19965;-88
2022/10/20 15:28:49;;;;;;;;;;;;;;;5.97;100.00;99343.34;4987975;28;19921;-94
2022/10/20 15:31:21;;;;;;;;;;;;;;;5.53;100.00;99344.66;5004825;28;20376;-89
2022/10/20 15:33:47;;;;;;;;;;;;;;;5.31;100.00;99332.13;4987012;28;19925;-92
2022/10/20 15:36:23;;;;;;;;;;;;;;;5.23;100.00;99320.97;5007376;28;19922;-93
2022/10/20 15:38:49;;;;;;;;;;;;;;;5.13;100.00;99322.16;4987263;28;19918;-89
2022/10/20 15:41:19;;;;;;;;;;;;;;;5.07;100.00;99316.16;5006454;28;19996;-89
2022/10/20 15:43:44;;;;;;;;;;;;;;;4.96;100.00;99323.47;4989065;28;19922;-90
2022/10/20 15:46:11;;;;;;;;;;;;;;;4.90;100.00;99319.25;5004555;28;19922;-90
2022/10/20 15:48:36;;;;;;;;;;;;;;;4.86;100.00;99311.50;4990240;28;20320;-93
2022/10/20 15:51:02;;;;;;;;;;;;;;;4.83;100.00;99312.44;5007248;28;19964;-91
2022/10/20 15:53:27;;;;;;;;;;;;;;;4.75;100.00;99311.78;4987822;28;20288;-89
2022/10/20 15:55:52;;;;;;;;;;;;;;;4.80;100.00;99301.16;5004410;28;20372;-91
2022/10/20 15:58:18;;;;;;;;;;;;;;;5.28;100.00;99304.19;4989632;28;19973;-91
2022/10/20 16:00:43;;;;;;;;;;;;;;;5.60;100.00;99294.50;5006929;28;19922;-89
2022/10/20 16:03:15;;;;;;;;;;;;;;;5.71;100.00;99290.66;4988718;28;19940;-89
2022/10/20 16:05:40;;;;;;;;;;;;;;;5.85;100.00;99288.47;4987729;28;20439;-91
2022/10/20 16:08:05;;;;;;;;;;;;;;;5.84;100.00;99289.38;4988385;28;19921;-89
2022/10/20 16:10:53;;;;;;;;;;;;;;;5.98;100.00;99292.47;4983372;28;19918;-89
2022/10/20 16:13:19;;;;;;;;;;;;;;;6.00;100.00;99282.75;5002381;28;19976;-90
2022/10/20 16:15:45;;;;;;;;;;;;;;;6.06;100.00;99278.19;5001470;28;20395;-89
2022/10/20 16:18:30;;;;;;;;;;;;;;;6.02;100.00;99274.81;5004310;28;19921;-89
2022/10/20 16:20:59;;;;;;;;;;;;;;;6.04;100.00;99273.00;5003625;28;19929;-88
2022/10/20 16:23:24;;;;;;;;;;;;;;;6.09;100.00;99275.47;4984459;28;19975;-89
2022/10/20 16:25:58;;;;;;;;;;;;;;;6.07;100.00;99282.56;4984743;28;19937;-91
2022/10/20 16:28:26;;;;;;;;;;;;;;;6.12;100.00;99270.13;5002126;28;19917;-88
2022/10/20 16:31:05;;;;;;;;;;;;;;;6.14;100.00;99276.19;4988680;28;19945;-92
2022/10/20 16:33:56;;;;;;;;;;;;;;;6.13;100.00;99270.06;4988669;28;19957;-88
2022/10/20 16:36:22;;;;;;;;;;;;;;;6.12;100.00;99278.00;4980532;28;20392;-89
2022/10/20 16:38:47;;;;;;;;;;;;;;;6.13;100.00;99280.59;4999897;28;19925;-90
2022/10/20 16:41:14;;;;;;;;;;;;;;;6.14;100.00;99290.22;5003080;28;20373;-90
2022/10/20 16:43:45;;;;;;;;;;;;;;;6.16;100.00;99291.00;5002124;28;19921;-89
2022/10/20 16:46:14;;;;;;;;;;;;;;;6.16;100.00;99277.88;5074429;23;19929;-88
2022/10/20 16:48:47;;;;;;;;;;;;;;;6.16;100.00;99271.75;4985669;28;19952;-88
2022/10/20 16:51:13;;;;;;;;;;;;;;;6.20;100.00;99268.09;4983792;28;19930;-90
2022/10/20 16:53:41;;;;;;;;;;;;;;;6.18;100.00;99259.41;4986860;28;19929;-90
2022/10/20 16:56:07;;;;;;;;;;;;;;;6.20;100.00;99260.19;4986025;28;19917;-90
2022/10/20 16:58:35;;;;;;;;;;;;;;;6.20;100.00;99247.03;4985887;28;19925;-91
2022/10/20 17:01:02;;;;;;;;;;;;;;;6.20;100.00;99260.19;5002342;28;20365;-92
2022/10/20 17:03:29;;;;;;;;;;;;;;;6.17;100.00;99253.28;4985759;28;20369;-89
2022/10/20 17:05:58;;;;;;;;;;;;;;;6.22;100.00;99257.50;4980872;28;19922;-91
2022/10/20 17:08:24;;;;;;;;;;;;;;;6.17;100.00;99260.28;4983086;28;19925;-91
2022/10/20 17:10:54;;;;;;;;;;;;;;;6.15;100.00;99259.50;4984673;28;20269;-90
2022/10/20 17:13:19;;;;;;;;;;;;;;;6.18;100.00;99254.97;5003925;28;20261;-88
2022/10/20 17:15:44;;;;;;;;;;;;;;;6.20;100.00;99248.81;4988302;28;19922;-89
2022/10/20 17:18:09;;;;;;;;;;;;;;;6.20;100.00;99246.19;4988129;28;20386;-90
2022/10/20 17:20:38;;;;;;;;;;;;;;;6.17;100.00;99252.41;4994539;28;19988;-89
2022/10/20 17:23:03;;;;;;;;;;;;;;;6.20;100.00;99247.03;4986839;28;20005;-91
2022/10/20 17:25:30;;;;;;;;;;;;;;;6.24;100.00;99240.78;5003619;28;20355;-91
2022/10/20 17:27:55;;;;;;;;;;;;;;;6.26;100.00;99252.09;4984291;28;19918;-89
2022/10/20 17:30:20;;;;;;;;;;;;;;;6.26;100.00;99257.38;5001738;28;20012;-90
2022/10/20 17:32:46;;;;;;;;;;;;;;;6.21;100.00;99253.16;4984387;28;19922;-89
2022/10/20 17:35:13;;;;;;;;;;;;;;;6.20;100.00;99251.44;4987138;28;19917;-91
2022/10/20 17:37:50;;;;;;;;;;;;;;;6.25;100.00;99260.91;4985241;28;19926;-92
2022/10/20 17:40:15;;;;;;;;;;;;;;;6.32;100.00;99258.94;4994824;28;19922;-90
2022/10/20 17:42:41;;;;;;;;;;;;;;;6.24;100.00;99263.56;4981211;28;19932;-87
2022/10/20 17:45:06;;;;;;;;;;;;;;;6.22;100.00;99260.16;4987341;28;19922;-89
2022/10/20 17:47:32;;;;;;;;;;;;;;;6.22;100.00;99258.38;5002795;28;19983;-93
2022/10/20 17:49:57;;;;;;;;;;;;;;;6.23;100.00;99265.34;4985550;28;19964;-90
2022/10/20 17:52:22;;;;;;;;;;;;;;;6.25;100.00;99270.56;5002788;28;19932;-88
2022/10/20 17:54:47;;;;;;;;;;;;;;;6.27;100.00;99269.63;4991725;28;19996;-89
2022/10/20 17:57:13;;;;;;;;;;;;;;;6.23;100.00;99269.78;4999554;28;20096;-88
2022/10/20 17:59:38;;;;;;;;;;;;;;;6.27;100.00;99264.34;5001426;28;19928;-89
2022/10/20 18:02:18;;;;;;;;;;;;;;;6.29;100.00;99273.06;4991044;28;19962;-89
2022/10/20 18:04:46;;;;;;;;;;;;;;;6.28;100.00;99273.94;5000056;28;19925;-88
2022/10/20 18:07:11;;;;;;;;;;;;;;;6.28;100.00;99273.94;5003838;28;19922;-91
2022/10/20 18:09:44;;;;;;;;;;;;;;;6.26;100.00;99270.53;4985436;28;20402;-89
2022/10/20 18:12:09;;;;;;;;;;;;;;;6.25;100.00;99270.56;5000033;28;20025;-87
2022/10/20 18:14:35;;;;;;;;;;;;;;;6.22;100.00;99266.25;5001791;28;19967;-85
2022/10/20 18:17:00;;;;;;;;;;;;;;;6.25;100.00;99263.53;4979802;28;20308;-89
2022/10/20 18:19:31;;;;;;;;;;;;;;;6.25;100.00;99260.03;4998717;28;20464;-95
2022/10/20 18:21:59;;;;;;;;;;;;;;;6.25;100.00;99258.25;4984980;28;20296;-94
2022/10/20 18:24:24;;;;;;;;;;;;;;;6.20;100.00;99251.44;5003027;28;20765;-91
2022/10/20 18:26:49;;;;;;;;;;;;;;;6.22;100.00;99250.47;4998592;28;19922;-89
2022/10/20 18:29:15;;;;;;;;;;;;;;;6.26;100.00;99241.56;5004142;28;19925;-87
2022/10/20 18:31:41;;;;;;;;;;;;;;;6.26;100.00;99233.69;5004143;28;20369;-84
2022/10/20 18:34:08;;;;;;;;;;;;;;;6.32;100.00;99222.97;4998839;28;19926;-94
2022/10/20 18:36:35;;;;;;;;;;;;;;;6.28;100.00;99218.69;4984882;28;19921;-92
2022/10/20 18:39:00;;;;;;;;;;;;;;;6.23;100.00;99218.00;4981288;28;19928;-93
2022/10/20 18:41:27;;;;;;;;;;;;;;;6.22;100.00;99212.78;4984151;28;19921;-86
2022/10/20 18:43:55;;;;;;;;;;;;;;;6.20;100.00;99215.47;5002541;28;20381;-88
2022/10/20 18:46:20;;;;;;;;;;;;;;;6.24;100.00;99213.59;5009413;28;19929;-93
2022/10/20 18:48:46;;;;;;;;;;;;;;;6.28;100.00;99212.59;5007958;28;20285;-92
2022/10/20 18:51:14;;;;;;;;;;;;;;;6.22;100.00;99207.53;5003237;28;19918;-86
2022/10/20 18:53:41;;;;;;;;;;;;;;;6.21;100.00;99206.69;5003179;28;19926;-91
2022/10/20 18:56:12;;;;;;;;;;;;;;;6.20;100.00;99215.47;5008354;28;20300;-89
2022/10/20 18:58:38;;;;;;;;;;;;;;;6.20;100.00;99217.25;5006649;28;20488;-89
2022/10/20 19:01:05;;;;;;;;;;;;;;;6.22;100.00;99224.16;5006713;28;19914;-90
2022/10/20 19:03:32;;;;;;;;;;;;;;;6.23;100.00;99218.00;4998232;28;19934;-88
2022/10/20 19:06:01;;;;;;;;;;;;;;;6.19;100.00;99211.16;5004068;28;19933;-85
2022/10/20 19:08:26;;;;;;;;;;;;;;;6.20;100.00;99204.94;5006477;28;20368;-90
2022/10/20 19:10:52;;;;;;;;;;;;;;;6.26;100.00;99214.41;5007243;28;19925;-91
2022/10/20 19:13:17;;;;;;;;;;;;;;;6.23;100.00;99215.38;4986121;28;20938;-89
2022/10/20 19:15:52;;;;;;;;;;;;;;;6.21;100.00;99217.19;5006203;28;20254;-92
2022/10/20 19:18:17;;;;;;;;;;;;;;;6.22;100.00;99207.53;4999371;28;19917;-88
2022/10/20 19:20:43;;;;;;;;;;;;;;;6.22;100.00;99208.38;5030241;23;20377;-92
2022/10/20 19:23:11;;;;;;;;;;;;;;;6.25;100.00;99210.91;5026050;28;19976;-88
2022/10/20 19:25:36;;;;;;;;;;;;;;;6.22;100.00;99210.16;5023769;28;20825;-85
2022/10/20 19:28:01;;;;;;;;;;;;;;;6.22;100.00;99204.91;5023355;28;19921;-90
2022/10/20 19:30:27;;;;;;;;;;;;;;;6.20;100.00;99207.56;5021280;28;20008;-91
2022/10/20 19:32:53;;;;;;;;;;;;;;;6.21;100.00;99211.94;5022085;28;19929;-89
2022/10/20 19:35:20;;;;;;;;;;;;;;;6.23;100.00;99206.63;5024910;28;19930;-88
2022/10/20 19:37:46;;;;;;;;;;;;;;;6.25;100.00;99213.53;5038742;28;19921;-88
2022/10/20 19:40:11;;;;;;;;;;;;;;;6.21;100.00;99211.94;5037895;28;19925;-86